createdAt,value
2022-09-01T00:04:41.371Z,83.64
2022-09-01T00:09:45.563Z,83.72
2022-09-01T00:14:48.381Z,84.21
2022-09-01T00:19:51.360Z,84.48
2022-09-01T00:24:54.993Z,85.28
2022-09-01T00:29:58.355Z,87.18
2022-09-01T00:35:01.138Z,86.23
2022-09-01T00:40:07.336Z,85.40
2022-09-01T00:45:11.256Z,85.52
2022-09-01T00:50:17.993Z,85.13
2022-09-01T00:55:27.188Z,85.04
2022-09-01T01:00:33.028Z,84.82
2022-09-01T01:05:40.605Z,84.95
2022-09-01T01:10:43.250Z,85.12
2022-09-01T01:15:46.015Z,84.91
2022-09-01T01:21:16.270Z,85.28
2022-09-01T01:26:19.852Z,85.10
2022-09-01T01:31:24.329Z,85.69
2022-09-01T01:36:36.509Z,85.40
2022-09-01T01:41:45.313Z,85.86
2022-09-01T01:46:51.320Z,86.95
2022-09-01T01:51:56.222Z,86.53
2022-09-01T01:57:05.929Z,87.09
2022-09-01T02:02:09.949Z,87.07
2022-09-01T02:07:13.919Z,86.86
2022-09-01T02:12:19.585Z,87.00
2022-09-01T02:17:23.102Z,88.04
2022-09-01T02:22:26.067Z,88.71
2022-09-01T02:27:29.648Z,88.42
2022-09-01T02:32:32.468Z,88.08
2022-09-01T02:37:35.369Z,87.60
2022-09-01T02:42:41.124Z,87.78
2022-09-01T02:47:46.742Z,87.55
2022-09-01T02:52:52.460Z,88.42
2022-09-01T02:57:57.198Z,88.13
2022-09-01T03:03:02.484Z,86.58
2022-09-01T03:08:10.637Z,85.25
2022-09-01T03:13:20.785Z,84.95
2022-09-01T03:18:24.000Z,84.26
2022-09-01T03:23:28.242Z,83.79
2022-09-01T03:28:32.088Z,82.82
2022-09-01T03:33:36.637Z,81.75
2022-09-01T03:38:44.249Z,80.31
2022-09-01T03:43:48.245Z,79.53
2022-09-01T03:49:05.793Z,78.41
2022-09-01T03:54:09.322Z,77.37
2022-09-01T03:59:17.169Z,76.69
2022-09-01T04:04:22.098Z,76.31
2022-09-01T04:09:24.839Z,76.35
2022-09-01T04:14:30.678Z,76.20
2022-09-01T04:19:38.673Z,75.88
2022-09-01T04:24:45.957Z,75.71
2022-09-01T04:29:50.271Z,75.08
2022-09-01T04:34:52.984Z,73.71
2022-09-01T04:39:57.496Z,72.83
2022-09-01T04:45:10.306Z,71.80
2022-09-01T04:50:17.705Z,71.31
2022-09-01T04:55:44.016Z,71.13
2022-09-01T05:00:49.747Z,70.33
2022-09-01T05:06:00.428Z,70.22
2022-09-01T05:11:07.663Z,70.09
2022-09-01T05:16:25.161Z,67.44
2022-09-01T05:21:30.230Z,68.00
2022-09-01T05:26:34.769Z,66.90
2022-09-01T05:31:39.065Z,66.53
2022-09-01T05:36:45.001Z,66.16
2022-09-01T05:41:49.436Z,65.25
2022-09-01T05:46:53.726Z,64.37
2022-09-01T05:51:59.089Z,63.49
2022-09-01T05:57:30.418Z,61.49
2022-09-01T06:02:28.966Z,60.41
2022-09-01T06:07:35.892Z,59.61
2022-09-01T06:12:40.730Z,60.29
2022-09-01T06:17:44.794Z,59.82
2022-09-01T06:22:49.624Z,60.02
2022-09-01T06:27:54.201Z,60.19
2022-09-01T06:32:57.208Z,60.59
2022-09-01T06:38:02.086Z,61.00
2022-09-01T06:43:16.389Z,61.08
2022-09-01T06:48:24.731Z,62.00
2022-09-01T06:53:35.326Z,61.97
2022-09-01T06:58:48.367Z,62.42
2022-09-01T07:03:54.613Z,60.97
2022-09-01T07:09:25.879Z,61.29
2022-09-01T07:26:04.222Z,62.47
2022-09-01T07:37:17.120Z,61.71
2022-09-01T07:47:53.046Z,61.17
2022-09-01T07:52:58.082Z,59.31
2022-09-01T07:58:00.861Z,58.09
2022-09-01T08:03:04.739Z,58.32
2022-09-01T08:08:18.552Z,57.98
2022-09-01T08:13:22.339Z,57.09
2022-09-01T08:18:25.435Z,56.25
2022-09-01T08:23:29.478Z,55.88
2022-09-01T08:28:33.806Z,55.26
2022-09-01T08:33:38.116Z,53.87
2022-09-01T08:38:42.272Z,53.68
2022-09-01T08:44:14.448Z,53.31
2022-09-01T08:49:25.623Z,52.54
2022-09-01T08:55:06.767Z,51.82
2022-09-01T09:00:13.729Z,51.52
2022-09-01T09:05:26.470Z,50.75
2022-09-01T09:10:50.990Z,49.94
2022-09-01T09:16:08.608Z,49.82
2022-09-01T09:21:21.196Z,49.36
2022-09-01T09:26:23.887Z,49.59
2022-09-01T09:31:38.780Z,49.13
2022-09-01T09:36:42.594Z,49.56
2022-09-01T09:42:10.028Z,50.24
2022-09-01T09:47:46.302Z,50.74
2022-09-01T09:52:50.067Z,49.12
2022-09-01T09:57:58.070Z,48.08
2022-09-01T10:03:08.669Z,47.23
2022-09-01T10:08:34.816Z,47.13
2022-09-01T10:13:37.632Z,49.65
2022-09-01T10:18:45.322Z,49.86
2022-09-01T10:23:48.131Z,49.32
2022-09-01T10:29:03.043Z,48.66
2022-09-01T10:34:07.904Z,48.95
2022-09-01T10:39:13.525Z,48.42
2022-09-01T10:44:58.870Z,48.01
2022-09-01T10:50:22.710Z,48.38
2022-09-01T10:55:26.530Z,48.59
2022-09-01T11:00:37.020Z,49.31
2022-09-01T11:06:13.289Z,48.32
2022-09-01T11:11:34.491Z,47.21
2022-09-01T11:16:49.308Z,46.99
2022-09-01T11:22:16.966Z,47.14
2022-09-01T11:27:50.647Z,45.45
2022-09-01T11:32:59.501Z,44.33
2022-09-01T11:38:05.891Z,43.83
2022-09-01T11:43:15.087Z,42.56
2022-09-01T11:48:19.610Z,42.09
2022-09-01T11:53:24.252Z,42.00
2022-09-01T11:58:31.335Z,42.31
2022-09-01T12:03:37.116Z,42.09
2022-09-01T12:08:43.074Z,41.83
2022-09-01T12:13:58.984Z,40.77
2022-09-01T12:19:02.390Z,40.28
2022-09-01T12:24:37.231Z,41.01
2022-09-01T12:29:40.623Z,40.21
2022-09-01T12:34:59.158Z,39.76
2022-09-01T12:40:02.110Z,39.47
2022-09-01T12:45:09.066Z,39.85
2022-09-01T12:50:12.307Z,40.62
2022-09-01T13:01:05.878Z,40.24
2022-09-01T13:06:18.985Z,40.74
2022-09-01T13:11:21.723Z,40.73
2022-09-01T13:16:24.473Z,41.04
2022-09-01T13:21:28.896Z,41.57
2022-09-01T13:26:32.566Z,41.40
2022-09-01T13:31:35.490Z,41.62
2022-09-01T13:36:43.648Z,42.47
2022-09-01T13:41:49.523Z,42.62
2022-09-01T13:46:59.756Z,42.23
2022-09-01T13:52:04.130Z,42.94
2022-09-01T13:57:07.583Z,44.17
2022-09-01T14:02:11.323Z,44.86
2022-09-01T14:07:14.067Z,45.16
2022-09-01T14:12:16.800Z,49.27
2022-09-01T14:17:19.383Z,59.14
2022-09-01T14:22:22.123Z,63.92
2022-09-01T14:27:24.801Z,64.15
2022-09-01T14:32:28.407Z,64.20
2022-09-01T14:37:31.114Z,64.71
2022-09-01T14:42:35.802Z,65.31
2022-09-01T14:47:39.570Z,66.93
2022-09-01T14:52:43.015Z,66.02
2022-09-01T14:57:45.815Z,66.81
2022-09-01T15:02:49.494Z,67.73
2022-09-01T15:07:53.274Z,67.71
2022-09-01T15:12:58.154Z,67.54
2022-09-01T15:18:01.675Z,68.39
2022-09-01T15:23:04.424Z,67.16
2022-09-01T15:28:07.176Z,67.37
2022-09-01T15:33:14.780Z,66.63
2022-09-01T15:38:18.391Z,66.78
2022-09-01T15:43:21.548Z,66.58
2022-09-01T15:48:26.249Z,66.57
2022-09-01T15:53:28.990Z,66.53
2022-09-01T15:58:44.401Z,66.88
2022-09-01T16:03:55.402Z,67.32
2022-09-01T16:08:58.190Z,67.70
2022-09-01T16:14:01.964Z,68.72
2022-09-01T16:19:07.741Z,69.01
2022-09-01T16:24:13.004Z,69.50
2022-09-01T16:29:25.173Z,71.46
2022-09-01T16:34:28.614Z,71.76
2022-09-01T16:39:34.317Z,71.94
2022-09-01T16:45:13.979Z,72.40
2022-09-01T16:50:54.502Z,72.65
2022-09-01T16:56:32.181Z,73.43
2022-09-01T17:01:56.589Z,73.00
2022-09-01T17:07:28.091Z,72.72
2022-09-01T17:12:47.088Z,71.89
2022-09-01T17:17:53.697Z,71.43
2022-09-01T17:23:00.654Z,71.67
2022-09-01T17:28:16.847Z,71.29
2022-09-01T17:33:49.105Z,71.85
2022-09-01T17:39:23.966Z,71.94
2022-09-01T17:44:35.720Z,72.38
2022-09-01T17:50:09.712Z,72.68
2022-09-01T17:55:34.772Z,72.82
2022-09-01T18:01:00.087Z,73.80
2022-09-01T18:06:09.765Z,73.87
2022-09-01T18:11:18.747Z,74.59
2022-09-01T18:16:43.656Z,74.08
2022-09-01T18:21:56.568Z,74.73
2022-09-01T18:27:01.682Z,74.14
2022-09-01T18:32:04.576Z,73.82
2022-09-01T18:37:18.008Z,73.95
2022-09-01T18:42:42.104Z,73.89
2022-09-01T18:48:00.023Z,74.51
2022-09-01T18:53:32.579Z,74.75
2022-09-01T18:58:57.898Z,74.65
2022-09-01T19:04:25.400Z,74.98
2022-09-01T19:09:51.128Z,75.61
2022-09-01T19:15:25.219Z,75.56
2022-09-01T19:20:37.963Z,76.07
2022-09-01T19:25:42.403Z,76.44
2022-09-01T19:30:50.565Z,76.80
2022-09-01T19:35:57.743Z,76.59
2022-09-01T19:41:24.776Z,77.07
2022-09-01T19:46:49.616Z,76.50
2022-09-01T19:52:03.125Z,76.76
2022-09-01T19:57:21.047Z,77.88
2022-09-01T20:02:46.477Z,78.08
2022-09-01T20:08:03.573Z,78.10
2022-09-01T20:13:43.965Z,79.15
2022-09-01T20:18:49.128Z,78.85
2022-09-01T20:24:03.705Z,78.53
2022-09-01T20:29:13.110Z,79.34
2022-09-01T20:34:19.949Z,78.71
2022-09-01T20:39:46.972Z,78.40
2022-09-01T20:44:59.461Z,78.81
2022-09-01T20:50:06.800Z,78.76
2022-09-01T20:55:16.824Z,78.81
2022-09-01T21:00:26.024Z,78.91
2022-09-01T21:05:37.587Z,78.93
2022-09-01T21:11:09.069Z,80.20
2022-09-01T21:16:32.731Z,79.86
2022-09-01T21:22:05.857Z,81.72
2022-09-01T21:27:13.673Z,81.62
2022-09-01T21:32:16.987Z,81.21
2022-09-01T21:37:22.445Z,81.47
2022-09-01T21:42:38.605Z,81.15
2022-09-01T21:47:43.589Z,82.35
2022-09-01T21:52:46.226Z,82.60
2022-09-01T21:57:49.051Z,83.11
2022-09-01T22:02:52.564Z,83.23
2022-09-01T22:07:56.618Z,84.09
2022-09-01T22:13:01.060Z,83.60
2022-09-01T22:18:03.856Z,83.44
2022-09-01T22:23:07.387Z,84.83
2022-09-01T22:28:10.340Z,84.24
2022-09-01T22:33:13.572Z,84.29
2022-09-01T22:38:16.988Z,84.45
2022-09-01T22:43:19.909Z,84.59
2022-09-01T22:48:25.296Z,84.87
2022-09-01T22:53:28.211Z,84.49
2022-09-01T22:58:32.812Z,84.66
2022-09-01T23:03:35.464Z,84.53
2022-09-01T23:08:39.403Z,84.06
2022-09-01T23:13:43.334Z,84.08
2022-09-01T23:18:47.683Z,84.35
2022-09-01T23:23:50.730Z,84.27
2022-09-01T23:29:02.608Z,84.17
2022-09-01T23:34:07.243Z,83.93
2022-09-01T23:39:09.836Z,83.82
2022-09-01T23:44:12.647Z,84.30
2022-09-01T23:49:17.541Z,83.77
2022-09-01T23:54:20.625Z,83.62
2022-09-01T23:59:27.413Z,82.82
